createdAt,value
2018-07-31T00:01:37.852Z,7.97
2018-07-31T00:04:06.653Z,3.67
2018-07-31T00:06:38.759Z,5.77
2018-07-31T00:09:28.422Z,3.80
2018-07-31T00:11:57.046Z,5.13
2018-07-31T00:14:33.327Z,3.67
2018-07-31T00:17:01.914Z,6.00
2018-07-31T00:19:30.368Z,4.47
2018-07-31T00:21:58.872Z,5.00
2018-07-31T00:24:27.483Z,5.00
2018-07-31T00:26:56.350Z,5.53
2018-07-31T00:29:24.844Z,5.77
2018-07-31T00:31:53.488Z,6.33
2018-07-31T00:34:22.051Z,4.10
2018-07-31T00:36:50.495Z,7.57
2018-07-31T00:39:19.013Z,4.27
2018-07-31T00:41:47.601Z,10.33
2018-07-31T00:44:16.127Z,4.87
2018-07-31T00:46:44.714Z,6.67
2018-07-31T00:49:13.180Z,6.10
2018-07-31T00:51:41.705Z,6.23
2018-07-31T00:54:10.175Z,5.40
2018-07-31T00:56:38.787Z,3.73
2018-07-31T00:59:07.329Z,5.50
2018-07-31T01:01:37.957Z,5.50
2018-07-31T01:04:06.445Z,4.23
2018-07-31T01:06:40.221Z,8.73
2018-07-31T01:09:10.274Z,4.57
2018-07-31T01:11:39.057Z,7.70
2018-07-31T01:14:20.628Z,4.70
2018-07-31T01:16:49.129Z,8.70
2018-07-31T01:19:17.658Z,2.47
2018-07-31T01:21:46.122Z,6.57
2018-07-31T01:24:14.791Z,6.83
2018-07-31T01:26:43.272Z,7.13
2018-07-31T01:29:11.845Z,7.83
2018-07-31T01:31:40.441Z,6.57
2018-07-31T01:34:17.029Z,5.93
2018-07-31T01:36:45.585Z,5.03
2018-07-31T01:39:14.185Z,4.00
2018-07-31T01:41:43.067Z,5.03
2018-07-31T01:47:34.399Z,3.50
2018-07-31T01:50:02.967Z,7.97
2018-07-31T01:52:31.492Z,7.23
2018-07-31T01:55:00.110Z,3.43
2018-07-31T01:57:28.623Z,9.30
2018-07-31T01:59:57.049Z,7.83
2018-07-31T02:02:25.590Z,6.90
2018-07-31T02:04:54.229Z,8.13
2018-07-31T02:07:22.694Z,11.30
2018-07-31T02:09:51.252Z,5.10
2018-07-31T02:12:19.726Z,13.20
2018-07-31T02:14:48.299Z,8.80
2018-07-31T02:17:16.825Z,9.40
2018-07-31T02:19:45.462Z,10.20
2018-07-31T02:22:13.962Z,7.97
2018-07-31T02:24:42.581Z,7.73
2018-07-31T02:27:11.131Z,5.83
2018-07-31T02:29:45.118Z,4.70
2018-07-31T02:32:13.621Z,9.77
2018-07-31T02:34:42.209Z,6.10
2018-07-31T02:37:10.768Z,4.53
2018-07-31T02:39:40.292Z,6.57
2018-07-31T02:42:08.862Z,9.70
2018-07-31T02:44:37.373Z,5.70
2018-07-31T02:47:06.195Z,10.53
2018-07-31T02:49:34.745Z,10.70
2018-07-31T02:52:03.403Z,11.83
2018-07-31T02:54:31.913Z,10.00
2018-07-31T02:57:00.363Z,9.03
2018-07-31T02:59:28.892Z,9.47
2018-07-31T03:01:57.549Z,9.97
2018-07-31T03:04:26.042Z,6.13
2018-07-31T03:06:54.593Z,9.73
2018-07-31T03:09:23.096Z,14.37
2018-07-31T03:11:51.578Z,9.23
2018-07-31T03:14:20.049Z,6.40
2018-07-31T03:16:48.483Z,8.10
2018-07-31T03:19:17.182Z,10.67
2018-07-31T03:21:45.798Z,5.33
2018-07-31T03:24:14.300Z,7.10
2018-07-31T03:26:42.866Z,6.10
2018-07-31T03:29:11.383Z,5.83
2018-07-31T03:31:39.842Z,9.73
2018-07-31T03:34:08.365Z,7.27
2018-07-31T03:36:36.895Z,7.47
2018-07-31T03:39:07.464Z,12.03
2018-07-31T03:41:36.016Z,6.63
2018-07-31T03:44:04.516Z,6.47
2018-07-31T03:46:49.860Z,9.13
2018-07-31T03:49:18.458Z,13.00
2018-07-31T03:51:46.951Z,10.40
2018-07-31T03:54:15.537Z,11.13
2018-07-31T03:56:44.132Z,9.87
2018-07-31T03:59:12.686Z,11.10
2018-07-31T04:01:41.385Z,7.03
2018-07-31T04:04:18.368Z,9.67
2018-07-31T04:06:46.962Z,9.77
2018-07-31T04:09:15.657Z,7.67
2018-07-31T04:11:44.125Z,11.30
2018-07-31T04:14:12.568Z,9.83
2018-07-31T04:16:41.139Z,15.67
2018-07-31T04:19:09.573Z,14.00
2018-07-31T04:21:38.085Z,11.73
2018-07-31T04:24:06.574Z,12.83
2018-07-31T04:26:35.127Z,11.67
2018-07-31T04:29:03.699Z,15.20
2018-07-31T04:31:32.172Z,14.13
2018-07-31T04:34:00.635Z,16.00
2018-07-31T04:36:29.153Z,17.53
2018-07-31T04:38:57.592Z,12.63
2018-07-31T04:41:26.023Z,14.97
2018-07-31T04:43:54.586Z,14.97
2018-07-31T04:46:23.197Z,15.60
2018-07-31T04:48:51.637Z,10.60
2018-07-31T04:51:20.147Z,10.33
2018-07-31T04:53:48.612Z,11.13
2018-07-31T04:56:17.204Z,10.47
2018-07-31T04:58:45.725Z,16.83
2018-07-31T05:01:14.264Z,19.53
2018-07-31T05:03:42.853Z,16.73
2018-07-31T05:06:11.543Z,27.57
2018-07-31T05:08:40.141Z,13.57
2018-07-31T05:11:08.734Z,13.47
2018-07-31T05:13:37.286Z,12.43
2018-07-31T05:16:06.073Z,14.47
2018-07-31T05:18:43.675Z,10.97
2018-07-31T05:21:12.115Z,16.87
2018-07-31T05:23:40.663Z,12.17
2018-07-31T05:26:09.143Z,15.83
2018-07-31T05:28:37.607Z,12.40
2018-07-31T05:31:06.204Z,9.80
2018-07-31T05:33:34.640Z,16.03
2018-07-31T05:36:03.236Z,9.73
2018-07-31T05:38:31.665Z,12.33
2018-07-31T05:41:00.180Z,13.53
2018-07-31T05:43:28.687Z,10.20
2018-07-31T05:45:57.141Z,14.07
2018-07-31T05:48:25.745Z,9.90
2018-07-31T05:50:54.226Z,10.07
2018-07-31T05:53:23.852Z,10.37
2018-07-31T05:55:52.434Z,11.80
2018-07-31T05:58:20.912Z,11.63
2018-07-31T06:00:49.539Z,11.73
2018-07-31T06:03:18.172Z,10.73
2018-07-31T06:05:46.637Z,12.10
2018-07-31T06:08:15.159Z,11.73
2018-07-31T06:10:43.728Z,12.53
2018-07-31T06:13:12.163Z,8.77
2018-07-31T06:15:40.688Z,10.50
2018-07-31T06:18:09.192Z,9.73
2018-07-31T06:20:37.767Z,15.17
2018-07-31T06:23:06.240Z,12.33
2018-07-31T06:25:34.873Z,15.10
2018-07-31T06:28:03.451Z,17.57
2018-07-31T06:30:32.009Z,25.63
2018-07-31T06:33:00.522Z,15.93
2018-07-31T06:35:29.050Z,25.93
2018-07-31T06:37:57.642Z,19.80
2018-07-31T06:40:26.159Z,16.73
2018-07-31T06:42:54.802Z,21.53
2018-07-31T06:45:23.298Z,19.13
2018-07-31T06:47:51.768Z,16.40
2018-07-31T06:50:20.367Z,18.17
2018-07-31T06:52:48.823Z,16.43
2018-07-31T06:55:17.530Z,19.77
2018-07-31T06:57:46.002Z,17.77
2018-07-31T07:00:14.469Z,17.57
2018-07-31T07:02:43.099Z,16.57
2018-07-31T07:05:11.665Z,19.83
2018-07-31T07:07:40.096Z,22.67
2018-07-31T07:10:08.753Z,22.83
2018-07-31T07:12:37.237Z,28.73
2018-07-31T07:15:05.962Z,15.17
2018-07-31T07:17:34.592Z,14.67
2018-07-31T07:20:03.082Z,19.87
2018-07-31T07:22:31.697Z,16.83
2018-07-31T07:25:00.227Z,17.27
2018-07-31T07:27:28.705Z,15.87
2018-07-31T07:29:57.358Z,18.60
2018-07-31T07:32:25.880Z,17.23
2018-07-31T07:34:54.414Z,13.53
2018-07-31T07:37:22.968Z,14.37
2018-07-31T07:39:51.567Z,16.50
2018-07-31T07:42:20.215Z,14.57
2018-07-31T07:44:48.703Z,15.57
2018-07-31T07:47:17.298Z,14.30
2018-07-31T07:49:45.870Z,15.83
2018-07-31T07:52:14.358Z,18.63
2018-07-31T07:54:43.160Z,16.43
2018-07-31T07:57:11.730Z,15.47
2018-07-31T07:59:40.281Z,13.40
2018-07-31T08:02:08.783Z,13.87
2018-07-31T08:04:37.238Z,18.37
2018-07-31T08:07:06.083Z,15.23
2018-07-31T08:09:34.813Z,11.20
2018-07-31T08:12:03.332Z,14.27
2018-07-31T08:14:32.006Z,8.27
2018-07-31T08:17:00.496Z,11.03
2018-07-31T08:19:28.966Z,12.40
2018-07-31T08:21:57.457Z,13.40
2018-07-31T08:24:25.927Z,9.40
2018-07-31T08:26:54.436Z,10.20
2018-07-31T08:29:23.038Z,10.50
2018-07-31T08:32:06.337Z,10.63
2018-07-31T08:34:34.982Z,7.70
2018-07-31T08:37:03.358Z,8.43
2018-07-31T08:39:31.994Z,7.83
2018-07-31T08:42:00.558Z,10.80
2018-07-31T08:44:29.035Z,9.77
2018-07-31T08:46:57.623Z,6.43
2018-07-31T08:49:26.109Z,12.20
2018-07-31T08:51:54.928Z,6.63
2018-07-31T08:54:23.385Z,7.40
2018-07-31T08:56:52.001Z,8.93
2018-07-31T08:59:20.440Z,7.10
2018-07-31T09:01:48.940Z,4.53
2018-07-31T09:04:17.415Z,13.53
2018-07-31T09:06:45.957Z,6.27
2018-07-31T09:09:14.505Z,5.00
2018-07-31T09:11:43.056Z,6.90
2018-07-31T09:14:11.528Z,6.97
2018-07-31T09:16:40.000Z,13.23
2018-07-31T09:19:08.644Z,5.33
2018-07-31T09:21:37.392Z,4.63
2018-07-31T09:24:05.939Z,7.20
2018-07-31T09:26:34.441Z,6.93
2018-07-31T09:29:02.930Z,5.13
2018-07-31T09:31:31.371Z,6.60
2018-07-31T09:33:59.908Z,2.70
2018-07-31T09:36:28.387Z,3.43
2018-07-31T09:38:57.054Z,2.57
2018-07-31T09:41:25.536Z,4.50
2018-07-31T09:43:54.034Z,3.77
2018-07-31T09:46:22.601Z,3.33
2018-07-31T09:48:51.077Z,3.43
2018-07-31T09:51:19.608Z,2.70
2018-07-31T09:53:48.161Z,5.37
2018-07-31T09:56:16.732Z,3.87
2018-07-31T09:58:45.240Z,2.80
2018-07-31T10:01:18.572Z,3.73
2018-07-31T10:03:47.316Z,5.70
2018-07-31T10:06:15.908Z,4.67
2018-07-31T10:08:44.366Z,8.90
2018-07-31T10:11:17.288Z,3.07
2018-07-31T10:13:46.918Z,4.00
2018-07-31T10:16:15.450Z,6.00
2018-07-31T10:18:43.940Z,3.73
2018-07-31T10:21:12.523Z,3.10
2018-07-31T10:23:41.062Z,4.97
2018-07-31T10:26:09.552Z,4.17
2018-07-31T10:28:38.114Z,9.13
2018-07-31T10:31:06.859Z,8.60
2018-07-31T10:33:35.373Z,4.50
2018-07-31T10:36:03.834Z,6.10
2018-07-31T10:38:32.964Z,8.27
2018-07-31T10:41:01.512Z,3.90
2018-07-31T10:43:30.081Z,3.03
2018-07-31T10:45:58.681Z,3.87
2018-07-31T10:48:27.250Z,5.10
2018-07-31T10:50:55.925Z,4.03
2018-07-31T10:53:24.598Z,2.90
2018-07-31T10:55:53.906Z,5.73
2018-07-31T10:58:22.424Z,3.37
2018-07-31T11:00:51.070Z,4.17
2018-07-31T11:03:19.575Z,4.30
2018-07-31T11:05:48.052Z,3.43
2018-07-31T11:08:16.633Z,2.00
2018-07-31T11:10:45.117Z,4.83
2018-07-31T11:13:13.715Z,4.43
2018-07-31T11:15:42.266Z,1.70
2018-07-31T11:18:10.787Z,5.17
2018-07-31T11:20:39.356Z,4.77
2018-07-31T11:23:07.936Z,5.00
2018-07-31T11:25:36.505Z,3.10
2018-07-31T11:28:04.928Z,4.60
2018-07-31T11:30:33.469Z,3.13
2018-07-31T11:33:01.996Z,1.27
2018-07-31T11:35:30.532Z,1.60
2018-07-31T11:37:59.012Z,4.80
2018-07-31T11:40:27.464Z,2.00
2018-07-31T11:42:55.968Z,4.43
2018-07-31T11:45:24.447Z,5.70
2018-07-31T11:47:53.131Z,4.57
2018-07-31T11:50:21.617Z,1.77
2018-07-31T11:52:50.109Z,7.50
2018-07-31T11:55:18.686Z,5.60
2018-07-31T11:57:47.422Z,1.67
2018-07-31T12:00:16.001Z,3.90
2018-07-31T12:02:44.538Z,3.07
2018-07-31T12:05:12.982Z,2.50
2018-07-31T12:07:41.505Z,2.73
2018-07-31T12:10:27.809Z,2.23
2018-07-31T12:12:56.391Z,2.17
2018-07-31T12:15:24.859Z,2.43
2018-07-31T12:17:53.381Z,8.33
2018-07-31T12:20:22.103Z,2.77
2018-07-31T12:22:50.608Z,2.00
2018-07-31T12:25:19.218Z,7.27
2018-07-31T12:27:47.730Z,4.20
2018-07-31T12:30:16.277Z,1.20
2018-07-31T12:32:44.748Z,1.43
2018-07-31T12:35:13.235Z,3.13
2018-07-31T12:37:41.707Z,4.80
2018-07-31T12:40:10.208Z,9.03
2018-07-31T12:42:38.768Z,3.23
2018-07-31T12:45:07.300Z,3.63
2018-07-31T12:47:35.849Z,1.57
2018-07-31T12:50:08.291Z,3.20
2018-07-31T12:52:37.406Z,3.87
2018-07-31T12:55:05.915Z,4.40
2018-07-31T12:57:34.481Z,3.73
2018-07-31T13:00:03.338Z,1.73
2018-07-31T13:02:31.877Z,1.10
2018-07-31T13:05:00.472Z,1.07
2018-07-31T13:07:28.952Z,3.60
2018-07-31T13:09:57.541Z,3.63
2018-07-31T13:12:26.078Z,2.30
2018-07-31T13:14:54.669Z,2.27
2018-07-31T13:17:23.237Z,2.20
2018-07-31T13:19:51.709Z,2.00
2018-07-31T13:22:20.233Z,3.60
2018-07-31T13:24:48.995Z,7.07
2018-07-31T13:27:17.484Z,1.03
2018-07-31T13:29:46.348Z,0.67
2018-07-31T13:32:14.845Z,3.60
2018-07-31T13:34:43.342Z,2.87
2018-07-31T13:37:11.946Z,1.40
2018-07-31T13:39:40.627Z,3.90
2018-07-31T13:42:09.111Z,4.10
2018-07-31T13:44:37.690Z,1.33
2018-07-31T13:47:06.232Z,0.80
2018-07-31T13:49:34.743Z,2.63
2018-07-31T13:52:03.291Z,2.17
2018-07-31T13:54:31.776Z,4.83
2018-07-31T13:57:00.340Z,2.13
2018-07-31T13:59:29.155Z,4.70
2018-07-31T14:01:57.743Z,3.03
2018-07-31T14:04:34.728Z,0.83
2018-07-31T14:07:04.833Z,2.77
2018-07-31T14:09:33.420Z,4.17
2018-07-31T14:12:02.001Z,2.37
2018-07-31T14:14:30.471Z,3.93
2018-07-31T14:16:58.967Z,5.20
2018-07-31T14:19:27.437Z,3.60
2018-07-31T14:21:55.920Z,5.80
2018-07-31T14:24:24.453Z,1.90
2018-07-31T14:27:13.972Z,4.73
2018-07-31T14:29:42.917Z,3.20
2018-07-31T14:32:11.460Z,1.93
2018-07-31T14:34:40.073Z,3.30
2018-07-31T14:37:08.969Z,3.30
2018-07-31T14:39:38.091Z,4.50
2018-07-31T14:42:06.625Z,4.10
2018-07-31T14:44:35.087Z,2.73
2018-07-31T14:47:04.585Z,3.20
2018-07-31T14:49:32.993Z,2.37
2018-07-31T14:52:01.545Z,2.57
2018-07-31T14:54:30.042Z,1.30
2018-07-31T14:56:58.520Z,2.63
2018-07-31T14:59:26.980Z,7.10
2018-07-31T15:01:55.499Z,2.90
2018-07-31T15:04:24.052Z,2.83
2018-07-31T15:06:52.548Z,1.43
2018-07-31T15:09:20.997Z,5.60
2018-07-31T15:11:49.515Z,10.17
2018-07-31T15:14:18.079Z,8.27
2018-07-31T15:16:46.618Z,10.00
2018-07-31T15:19:15.254Z,6.43
2018-07-31T15:21:43.736Z,6.00
2018-07-31T15:24:12.208Z,3.13
2018-07-31T15:26:40.796Z,4.03
2018-07-31T15:29:09.317Z,6.40
2018-07-31T15:31:37.937Z,3.87
2018-07-31T15:34:06.659Z,5.00
2018-07-31T15:36:35.270Z,2.57
2018-07-31T15:39:05.053Z,4.40
2018-07-31T15:41:33.536Z,3.23
2018-07-31T15:44:02.114Z,2.97
2018-07-31T15:46:39.295Z,1.63
2018-07-31T15:49:08.121Z,4.57
2018-07-31T15:51:36.672Z,2.77
2018-07-31T15:54:05.232Z,4.77
2018-07-31T15:56:33.636Z,3.27
2018-07-31T15:59:02.222Z,2.90
2018-07-31T16:01:30.793Z,8.07
2018-07-31T16:03:59.277Z,6.80
2018-07-31T16:06:27.792Z,4.03
2018-07-31T16:08:56.363Z,6.17
2018-07-31T16:11:24.916Z,5.80
2018-07-31T16:13:53.348Z,4.53
2018-07-31T16:16:21.844Z,8.43
2018-07-31T16:18:50.389Z,4.47
2018-07-31T16:21:18.954Z,3.43
2018-07-31T16:23:47.425Z,6.00
2018-07-31T16:26:15.957Z,4.33
2018-07-31T16:28:44.540Z,3.60
2018-07-31T16:31:13.081Z,2.70
2018-07-31T16:33:41.613Z,4.93
2018-07-31T16:36:10.148Z,4.23
2018-07-31T16:38:38.620Z,4.80
2018-07-31T16:41:07.284Z,5.23
2018-07-31T16:43:35.791Z,2.50
2018-07-31T16:46:04.273Z,6.13
2018-07-31T16:48:32.765Z,5.10
2018-07-31T16:51:01.249Z,6.03
2018-07-31T16:53:29.708Z,5.20
2018-07-31T16:55:58.192Z,4.37
2018-07-31T16:58:26.664Z,10.20
2018-07-31T17:00:55.159Z,12.07
2018-07-31T17:03:23.766Z,2.30
2018-07-31T17:05:52.297Z,7.03
2018-07-31T17:08:20.841Z,9.63
2018-07-31T17:10:49.389Z,8.27
2018-07-31T17:13:17.879Z,9.33
2018-07-31T17:15:46.460Z,7.37
2018-07-31T17:18:15.143Z,4.27
2018-07-31T17:20:43.628Z,4.20
2018-07-31T17:23:12.195Z,5.20
2018-07-31T17:25:41.403Z,4.97
2018-07-31T17:28:09.946Z,25.20
2018-07-31T17:30:38.502Z,14.90
2018-07-31T17:33:07.134Z,6.03
2018-07-31T17:35:35.652Z,7.10
2018-07-31T17:38:04.140Z,5.23
2018-07-31T17:40:32.704Z,7.73
2018-07-31T17:43:01.174Z,3.53
2018-07-31T17:45:29.683Z,6.53
2018-07-31T17:47:58.237Z,5.30
2018-07-31T17:50:26.762Z,10.90
2018-07-31T17:52:55.322Z,4.50
2018-07-31T17:55:23.891Z,4.63
2018-07-31T17:57:52.415Z,9.73
2018-07-31T18:00:20.953Z,6.23
2018-07-31T18:02:49.456Z,10.23
2018-07-31T18:05:18.158Z,5.43
2018-07-31T18:07:46.710Z,4.13
2018-07-31T18:10:15.229Z,3.27
2018-07-31T18:12:43.789Z,4.77
2018-07-31T18:15:12.353Z,5.60
2018-07-31T18:17:40.884Z,8.30
2018-07-31T18:20:09.448Z,5.57
2018-07-31T18:22:37.997Z,9.30
2018-07-31T18:25:06.592Z,3.80
2018-07-31T18:27:35.061Z,7.50
2018-07-31T18:30:03.885Z,6.27
2018-07-31T18:32:32.542Z,4.70
2018-07-31T18:35:01.077Z,8.07
2018-07-31T18:37:29.741Z,5.50
2018-07-31T18:39:58.410Z,4.00
2018-07-31T18:42:26.858Z,4.97
2018-07-31T18:44:55.371Z,8.03
2018-07-31T18:47:23.949Z,7.00
2018-07-31T18:49:52.729Z,7.27
2018-07-31T18:52:21.275Z,5.70
2018-07-31T18:54:49.842Z,6.27
2018-07-31T18:57:18.376Z,3.77
2018-07-31T18:59:46.874Z,2.97
2018-07-31T19:02:15.369Z,5.73
2018-07-31T19:04:43.827Z,4.53
2018-07-31T19:07:12.312Z,5.20
2018-07-31T19:09:40.813Z,4.80
2018-07-31T19:12:09.386Z,3.43
2018-07-31T19:14:37.932Z,6.70
2018-07-31T19:17:06.761Z,5.03
2018-07-31T19:19:35.250Z,8.97
2018-07-31T19:22:03.855Z,3.47
2018-07-31T19:24:32.431Z,6.37
2018-07-31T19:27:01.033Z,6.37
2018-07-31T19:29:29.485Z,4.60
2018-07-31T19:31:58.075Z,6.47
2018-07-31T19:34:27.061Z,8.03
2018-07-31T19:36:55.734Z,6.10
2018-07-31T19:39:24.336Z,5.90
2018-07-31T19:41:52.993Z,4.73
2018-07-31T19:44:21.412Z,7.03
2018-07-31T19:46:50.077Z,6.53
2018-07-31T19:49:18.712Z,3.97
2018-07-31T19:51:47.385Z,7.90
2018-07-31T19:54:16.084Z,7.33
2018-07-31T19:56:44.605Z,12.13
2018-07-31T19:59:13.084Z,7.37
2018-07-31T20:01:41.674Z,8.20
2018-07-31T20:04:10.295Z,4.47
2018-07-31T20:06:38.883Z,4.73
2018-07-31T20:09:08.662Z,5.97
2018-07-31T20:11:37.253Z,4.63
2018-07-31T20:14:05.951Z,4.13
2018-07-31T20:16:34.591Z,4.63
2018-07-31T20:19:03.178Z,8.73
2018-07-31T20:21:31.933Z,2.83
2018-07-31T20:24:00.510Z,9.87
2018-07-31T20:26:29.080Z,6.70
2018-07-31T20:28:57.658Z,4.73
2018-07-31T20:31:26.233Z,8.83
2018-07-31T20:33:54.719Z,6.23
2018-07-31T20:36:23.482Z,7.37
2018-07-31T20:38:52.461Z,4.90
2018-07-31T20:41:21.055Z,5.17
2018-07-31T20:43:49.682Z,9.53
2018-07-31T20:46:18.788Z,5.27
2018-07-31T20:48:47.317Z,8.43
2018-07-31T20:51:15.898Z,6.63
2018-07-31T20:53:44.533Z,7.30
2018-07-31T20:56:13.183Z,8.27
2018-07-31T20:58:41.789Z,12.10
2018-07-31T21:01:10.387Z,9.03
2018-07-31T21:03:38.993Z,4.63
2018-07-31T21:09:37.039Z,7.53
2018-07-31T21:12:05.736Z,11.13
2018-07-31T21:14:34.340Z,4.83
2018-07-31T21:17:02.953Z,7.70
2018-07-31T21:19:31.483Z,5.80
2018-07-31T21:22:00.659Z,11.50
2018-07-31T21:24:29.475Z,6.23
2018-07-31T21:26:58.065Z,8.83
2018-07-31T21:29:26.662Z,15.20
2018-07-31T21:31:55.446Z,6.33
2018-07-31T21:34:24.280Z,7.23
2018-07-31T21:36:52.971Z,9.07
2018-07-31T21:39:21.546Z,3.07
2018-07-31T21:41:50.106Z,11.70
2018-07-31T21:44:18.581Z,5.33
2018-07-31T21:46:47.209Z,7.00
2018-07-31T21:49:15.724Z,4.00
2018-07-31T21:51:44.198Z,13.83
2018-07-31T21:54:12.765Z,4.40
2018-07-31T21:56:41.388Z,9.43
2018-07-31T21:59:10.062Z,7.13
2018-07-31T22:01:38.663Z,10.37
2018-07-31T22:04:07.410Z,9.17
2018-07-31T22:06:36.014Z,9.87
2018-07-31T22:09:06.702Z,6.37
2018-07-31T22:11:35.229Z,7.97
2018-07-31T22:14:04.722Z,13.07
2018-07-31T22:16:33.370Z,8.10
2018-07-31T22:19:02.061Z,9.43
2018-07-31T22:21:30.608Z,8.07
2018-07-31T22:23:59.166Z,7.53
2018-07-31T22:26:27.714Z,6.40
2018-07-31T22:28:56.373Z,10.90
2018-07-31T22:31:24.924Z,6.27
2018-07-31T22:33:53.568Z,6.40
2018-07-31T22:36:22.154Z,5.80
2018-07-31T22:38:50.686Z,6.80
2018-07-31T22:41:19.263Z,7.43
2018-07-31T22:43:47.829Z,8.70
2018-07-31T22:46:16.425Z,7.57
2018-07-31T22:48:49.826Z,8.57
2018-07-31T22:51:18.335Z,7.10
2018-07-31T22:53:46.893Z,9.30
2018-07-31T22:56:15.487Z,6.83
2018-07-31T22:58:44.071Z,6.00
2018-07-31T23:01:12.678Z,8.37
2018-07-31T23:03:41.135Z,4.13
2018-07-31T23:06:09.654Z,3.30
2018-07-31T23:08:38.084Z,6.50
2018-07-31T23:11:06.752Z,4.77
2018-07-31T23:13:35.257Z,4.53
2018-07-31T23:16:03.765Z,4.00
2018-07-31T23:18:32.258Z,6.73
2018-07-31T23:21:00.689Z,6.13
2018-07-31T23:23:29.173Z,4.63
2018-07-31T23:25:57.658Z,6.33
2018-07-31T23:28:26.190Z,4.80
2018-07-31T23:30:54.731Z,6.80
2018-07-31T23:33:23.329Z,9.93
2018-07-31T23:35:51.805Z,7.63
2018-07-31T23:38:20.407Z,5.07
2018-07-31T23:40:48.922Z,7.33
2018-07-31T23:43:17.370Z,6.77
2018-07-31T23:45:45.938Z,5.23
2018-07-31T23:48:14.406Z,3.30
2018-07-31T23:50:43.060Z,5.73
2018-07-31T23:53:11.494Z,4.03
2018-07-31T23:55:40.098Z,5.30
2018-07-31T23:58:08.657Z,8.67
